sensor_id;sensor_type;location;lat;lon;timestamp;pressure;altitude;pressure_sealevel;temperature
51547;BMP180;37542;50.164;9.086;2022-08-01T00:02:37;100641.00;;;28.10
51547;BMP180;37542;50.164;9.086;2022-08-01T00:06:18;100638.00;;;28.00
51547;BMP180;37542;50.164;9.086;2022-08-01T00:10:49;100645.00;;;27.90
51547;BMP180;37542;50.164;9.086;2022-08-01T00:14:30;100633.00;;;27.90
51547;BMP180;37542;50.164;9.086;2022-08-01T00:18:14;100632.00;;;27.80
51547;BMP180;37542;50.164;9.086;2022-08-01T00:22:07;100644.00;;;27.70
51547;BMP180;37542;50.164;9.086;2022-08-01T00:26:07;100631.00;;;27.70
51547;BMP180;37542;50.164;9.086;2022-08-01T00:29:47;100642.00;;;27.70
51547;BMP180;37542;50.164;9.086;2022-08-01T00:33:28;100649.00;;;27.70
51547;BMP180;37542;50.164;9.086;2022-08-01T00:37:09;100637.00;;;27.70
51547;BMP180;37542;50.164;9.086;2022-08-01T00:40:50;100630.00;;;27.70
51547;BMP180;37542;50.164;9.086;2022-08-01T00:44:31;100638.00;;;27.70
51547;BMP180;37542;50.164;9.086;2022-08-01T00:48:12;100645.00;;;27.70
51547;BMP180;37542;50.164;9.086;2022-08-01T00:51:53;100632.00;;;27.70
51547;BMP180;37542;50.164;9.086;2022-08-01T00:55:34;100636.00;;;27.70
51547;BMP180;37542;50.164;9.086;2022-08-01T00:59:17;100641.00;;;27.70
51547;BMP180;37542;50.164;9.086;2022-08-01T01:02:58;100640.00;;;27.60
51547;BMP180;37542;50.164;9.086;2022-08-01T01:10:45;100628.00;;;27.50
51547;BMP180;37542;50.164;9.086;2022-08-01T01:19:08;100642.00;;;27.40
51547;BMP180;37542;50.164;9.086;2022-08-01T01:27:59;100631.00;;;27.30
51547;BMP180;37542;50.164;9.086;2022-08-01T01:36:40;100635.00;;;27.10
51547;BMP180;37542;50.164;9.086;2022-08-01T01:40:26;100652.00;;;27.10
51547;BMP180;37542;50.164;9.086;2022-08-01T01:44:11;100665.00;;;27.00
51547;BMP180;37542;50.164;9.086;2022-08-01T01:47:54;100660.00;;;27.00
51547;BMP180;37542;50.164;9.086;2022-08-01T01:51:38;100672.00;;;26.90
51547;BMP180;37542;50.164;9.086;2022-08-01T01:55:23;100659.00;;;26.90
51547;BMP180;37542;50.164;9.086;2022-08-01T01:59:05;100665.00;;;26.90
51547;BMP180;37542;50.164;9.086;2022-08-01T02:02:47;100655.00;;;26.80
51547;BMP180;37542;50.164;9.086;2022-08-01T02:06:31;100652.00;;;26.80
51547;BMP180;37542;50.164;9.086;2022-08-01T02:10:15;100655.00;;;26.80
51547;BMP180;37542;50.164;9.086;2022-08-01T02:14:02;100667.00;;;26.80
51547;BMP180;37542;50.164;9.086;2022-08-01T02:17:48;100655.00;;;26.80
51547;BMP180;37542;50.164;9.086;2022-08-01T02:21:39;100655.00;;;26.80
51547;BMP180;37542;50.164;9.086;2022-08-01T02:25:49;100663.00;;;26.70
51547;BMP180;37542;50.164;9.086;2022-08-01T02:29:41;100670.00;;;26.70
51547;BMP180;37542;50.164;9.086;2022-08-01T02:33:38;100662.00;;;26.70
51547;BMP180;37542;50.164;9.086;2022-08-01T02:37:20;100678.00;;;26.70
51547;BMP180;37542;50.164;9.086;2022-08-01T02:41:08;100676.00;;;26.70
51547;BMP180;37542;50.164;9.086;2022-08-01T02:44:51;100669.00;;;26.70
51547;BMP180;37542;50.164;9.086;2022-08-01T02:48:36;100667.00;;;26.70
51547;BMP180;37542;50.164;9.086;2022-08-01T02:52:23;100665.00;;;26.70
51547;BMP180;37542;50.164;9.086;2022-08-01T02:56:06;100672.00;;;26.70
51547;BMP180;37542;50.164;9.086;2022-08-01T02:59:50;100667.00;;;26.70
51547;BMP180;37542;50.164;9.086;2022-08-01T03:03:33;100669.00;;;26.80
51547;BMP180;37542;50.164;9.086;2022-08-01T03:07:15;100659.00;;;26.70
51547;BMP180;37542;50.164;9.086;2022-08-01T03:10:59;100668.00;;;26.80
51547;BMP180;37542;50.164;9.086;2022-08-01T03:14:43;100671.00;;;26.80
51547;BMP180;37542;50.164;9.086;2022-08-01T03:18:27;100671.00;;;26.80
51547;BMP180;37542;50.164;9.086;2022-08-01T03:22:11;100660.00;;;26.70
51547;BMP180;37542;50.164;9.086;2022-08-01T03:25:54;100668.00;;;26.90
51547;BMP180;37542;50.164;9.086;2022-08-01T03:29:43;100676.00;;;26.80
51547;BMP180;37542;50.164;9.086;2022-08-01T03:33:25;100663.00;;;26.90
51547;BMP180;37542;50.164;9.086;2022-08-01T03:37:23;100677.00;;;26.80
51547;BMP180;37542;50.164;9.086;2022-08-01T03:41:13;100670.00;;;26.90
51547;BMP180;37542;50.164;9.086;2022-08-01T03:45:02;100673.00;;;26.90
51547;BMP180;37542;50.164;9.086;2022-08-01T03:48:48;100684.00;;;26.90
51547;BMP180;37542;50.164;9.086;2022-08-01T03:52:34;100679.00;;;26.90
51547;BMP180;37542;50.164;9.086;2022-08-01T03:56:20;100663.00;;;26.90
51547;BMP180;37542;50.164;9.086;2022-08-01T04:00:05;100685.00;;;27.00
51547;BMP180;37542;50.164;9.086;2022-08-01T04:03:51;100668.00;;;26.90
51547;BMP180;37542;50.164;9.086;2022-08-01T04:07:33;100693.00;;;26.90
51547;BMP180;37542;50.164;9.086;2022-08-01T04:11:17;100693.00;;;26.90
51547;BMP180;37542;50.164;9.086;2022-08-01T04:14:58;100691.00;;;26.90
51547;BMP180;37542;50.164;9.086;2022-08-01T04:18:39;100699.00;;;26.90
51547;BMP180;37542;50.164;9.086;2022-08-01T04:22:20;100688.00;;;26.90
51547;BMP180;37542;50.164;9.086;2022-08-01T04:26:05;100690.00;;;26.90
51547;BMP180;37542;50.164;9.086;2022-08-01T04:29:47;100701.00;;;26.90
51547;BMP180;37542;50.164;9.086;2022-08-01T04:33:50;100703.00;;;26.90
51547;BMP180;37542;50.164;9.086;2022-08-01T04:37:35;100692.00;;;26.90
51547;BMP180;37542;50.164;9.086;2022-08-01T04:41:18;100706.00;;;27.00
51547;BMP180;37542;50.164;9.086;2022-08-01T04:44:59;100695.00;;;27.00
51547;BMP180;37542;50.164;9.086;2022-08-01T04:48:41;100704.00;;;27.10
51547;BMP180;37542;50.164;9.086;2022-08-01T04:56:05;100709.00;;;27.10
51547;BMP180;37542;50.164;9.086;2022-08-01T04:59:46;100701.00;;;27.20
51547;BMP180;37542;50.164;9.086;2022-08-01T05:03:29;100709.00;;;27.20
51547;BMP180;37542;50.164;9.086;2022-08-01T05:07:12;100711.00;;;27.20
51547;BMP180;37542;50.164;9.086;2022-08-01T05:10:53;100717.00;;;27.30
51547;BMP180;37542;50.164;9.086;2022-08-01T05:14:34;100716.00;;;27.30
51547;BMP180;37542;50.164;9.086;2022-08-01T05:18:15;100717.00;;;27.40
51547;BMP180;37542;50.164;9.086;2022-08-01T05:22:03;100726.00;;;27.40
51547;BMP180;37542;50.164;9.086;2022-08-01T05:25:45;100723.00;;;27.50
51547;BMP180;37542;50.164;9.086;2022-08-01T05:29:26;100727.00;;;27.50
51547;BMP180;37542;50.164;9.086;2022-08-01T05:33:07;100719.00;;;27.60
51547;BMP180;37542;50.164;9.086;2022-08-01T05:36:57;100728.00;;;27.60
51547;BMP180;37542;50.164;9.086;2022-08-01T05:40:40;100749.00;;;27.70
51547;BMP180;37542;50.164;9.086;2022-08-01T05:44:24;100709.00;;;27.70
51547;BMP180;37542;50.164;9.086;2022-08-01T05:48:06;100728.00;;;27.80
51547;BMP180;37542;50.164;9.086;2022-08-01T05:51:46;100733.00;;;27.80
51547;BMP180;37542;50.164;9.086;2022-08-01T05:55:27;100738.00;;;27.90
51547;BMP180;37542;50.164;9.086;2022-08-01T05:59:08;100725.00;;;27.90
51547;BMP180;37542;50.164;9.086;2022-08-01T06:02:49;100728.00;;;28.00
51547;BMP180;37542;50.164;9.086;2022-08-01T06:06:30;100738.00;;;28.00
51547;BMP180;37542;50.164;9.086;2022-08-01T06:10:11;100742.00;;;28.00
51547;BMP180;37542;50.164;9.086;2022-08-01T06:13:52;100739.00;;;28.00
51547;BMP180;37542;50.164;9.086;2022-08-01T06:17:33;100743.00;;;28.10
51547;BMP180;37542;50.164;9.086;2022-08-01T06:21:14;100744.00;;;28.10
51547;BMP180;37542;50.164;9.086;2022-08-01T06:24:55;100744.00;;;28.20
51547;BMP180;37542;50.164;9.086;2022-08-01T06:28:36;100743.00;;;28.20
51547;BMP180;37542;50.164;9.086;2022-08-01T06:32:17;100742.00;;;28.20
51547;BMP180;37542;50.164;9.086;2022-08-01T06:35:58;100750.00;;;28.30
51547;BMP180;37542;50.164;9.086;2022-08-01T06:39:39;100758.00;;;28.30
51547;BMP180;37542;50.164;9.086;2022-08-01T06:43:20;100761.00;;;28.40
51547;BMP180;37542;50.164;9.086;2022-08-01T06:47:02;100766.00;;;28.40
51547;BMP180;37542;50.164;9.086;2022-08-01T06:50:42;100772.00;;;28.50
51547;BMP180;37542;50.164;9.086;2022-08-01T06:54:23;100771.00;;;28.50
51547;BMP180;37542;50.164;9.086;2022-08-01T06:58:04;100764.00;;;28.50
51547;BMP180;37542;50.164;9.086;2022-08-01T07:01:45;100774.00;;;28.50
51547;BMP180;37542;50.164;9.086;2022-08-01T07:05:26;100780.00;;;28.50
51547;BMP180;37542;50.164;9.086;2022-08-01T07:09:07;100764.00;;;28.50
51547;BMP180;37542;50.164;9.086;2022-08-01T07:12:48;100771.00;;;28.60
51547;BMP180;37542;50.164;9.086;2022-08-01T07:16:29;100771.00;;;28.60
51547;BMP180;37542;50.164;9.086;2022-08-01T07:20:12;100772.00;;;28.70
51547;BMP180;37542;50.164;9.086;2022-08-01T07:23:53;100766.00;;;28.70
51547;BMP180;37542;50.164;9.086;2022-08-01T07:27:35;100768.00;;;28.80
51547;BMP180;37542;50.164;9.086;2022-08-01T07:31:16;100778.00;;;28.80
51547;BMP180;37542;50.164;9.086;2022-08-01T07:35:00;100763.00;;;28.80
51547;BMP180;37542;50.164;9.086;2022-08-01T07:38:41;100760.00;;;28.80
51547;BMP180;37542;50.164;9.086;2022-08-01T07:42:21;100773.00;;;28.80
51547;BMP180;37542;50.164;9.086;2022-08-01T07:46:06;100763.00;;;28.90
51547;BMP180;37542;50.164;9.086;2022-08-01T07:49:47;100762.00;;;28.90
51547;BMP180;37542;50.164;9.086;2022-08-01T07:53:27;100757.00;;;29.00
51547;BMP180;37542;50.164;9.086;2022-08-01T07:57:09;100767.00;;;29.20
51547;BMP180;37542;50.164;9.086;2022-08-01T08:00:50;100769.00;;;29.30
51547;BMP180;37542;50.164;9.086;2022-08-01T08:04:30;100755.00;;;29.50
51547;BMP180;37542;50.164;9.086;2022-08-01T08:08:11;100762.00;;;29.60
51547;BMP180;37542;50.164;9.086;2022-08-01T08:11:54;100761.00;;;29.70
51547;BMP180;37542;50.164;9.086;2022-08-01T08:15:35;100771.00;;;29.90
51547;BMP180;37542;50.164;9.086;2022-08-01T08:19:16;100770.00;;;30.00
51547;BMP180;37542;50.164;9.086;2022-08-01T08:22:57;100763.00;;;30.10
51547;BMP180;37542;50.164;9.086;2022-08-01T08:26:39;100759.00;;;30.10
51547;BMP180;37542;50.164;9.086;2022-08-01T08:30:20;100768.00;;;30.20
51547;BMP180;37542;50.164;9.086;2022-08-01T08:34:00;100763.00;;;30.40
51547;BMP180;37542;50.164;9.086;2022-08-01T08:37:42;100757.00;;;30.50
51547;BMP180;37542;50.164;9.086;2022-08-01T08:41:23;100760.00;;;30.70
51547;BMP180;37542;50.164;9.086;2022-08-01T08:45:06;100768.00;;;30.90
51547;BMP180;37542;50.164;9.086;2022-08-01T08:48:47;100758.00;;;31.00
51547;BMP180;37542;50.164;9.086;2022-08-01T08:52:29;100761.00;;;31.10
51547;BMP180;37542;50.164;9.086;2022-08-01T08:56:13;100756.00;;;31.30
51547;BMP180;37542;50.164;9.086;2022-08-01T08:59:54;100756.00;;;31.50
51547;BMP180;37542;50.164;9.086;2022-08-01T09:03:36;100768.00;;;31.70
51547;BMP180;37542;50.164;9.086;2022-08-01T09:07:17;100767.00;;;31.80
51547;BMP180;37542;50.164;9.086;2022-08-01T09:10:59;100774.00;;;31.90
51547;BMP180;37542;50.164;9.086;2022-08-01T09:23:32;100790.00;;;31.60
51547;BMP180;37542;50.164;9.086;2022-08-01T09:33:02;100726.00;;;31.20
51547;BMP180;37542;50.164;9.086;2022-08-01T09:36:56;100792.00;;;31.20
51547;BMP180;37542;50.164;9.086;2022-08-01T09:44:42;100775.00;;;31.20
51547;BMP180;37542;50.164;9.086;2022-08-01T09:57:33;100780.00;;;31.20
51547;BMP180;37542;50.164;9.086;2022-08-01T10:01:14;100785.00;;;31.30
51547;BMP180;37542;50.164;9.086;2022-08-01T10:04:55;100740.00;;;31.50
51547;BMP180;37542;50.164;9.086;2022-08-01T10:08:46;100763.00;;;31.70
51547;BMP180;37542;50.164;9.086;2022-08-01T10:12:35;100752.00;;;32.00
51547;BMP180;37542;50.164;9.086;2022-08-01T10:17:51;100717.00;;;32.40
51547;BMP180;37542;50.164;9.086;2022-08-01T10:21:40;100744.00;;;32.80
51547;BMP180;37542;50.164;9.086;2022-08-01T10:26:25;100740.00;;;33.40
51547;BMP180;37542;50.164;9.086;2022-08-01T10:30:15;100735.00;;;33.80
51547;BMP180;37542;50.164;9.086;2022-08-01T10:33:58;100740.00;;;33.90
51547;BMP180;37542;50.164;9.086;2022-08-01T10:37:59;100737.00;;;34.10
51547;BMP180;37542;50.164;9.086;2022-08-01T10:46:48;100721.00;;;34.50
51547;BMP180;37542;50.164;9.086;2022-08-01T10:50:45;100736.00;;;34.80
51547;BMP180;37542;50.164;9.086;2022-08-01T10:54:27;100735.00;;;35.00
51547;BMP180;37542;50.164;9.086;2022-08-01T10:58:08;100724.00;;;35.10
51547;BMP180;37542;50.164;9.086;2022-08-01T11:02:01;100726.00;;;35.20
51547;BMP180;37542;50.164;9.086;2022-08-01T11:05:51;100713.00;;;35.50
51547;BMP180;37542;50.164;9.086;2022-08-01T11:10:14;100716.00;;;35.60
51547;BMP180;37542;50.164;9.086;2022-08-01T11:17:44;100699.00;;;36.10
51547;BMP180;37542;50.164;9.086;2022-08-01T11:29:31;100694.00;;;36.70
51547;BMP180;37542;50.164;9.086;2022-08-01T11:33:15;100697.00;;;36.80
51547;BMP180;37542;50.164;9.086;2022-08-01T11:37:28;100707.00;;;36.70
51547;BMP180;37542;50.164;9.086;2022-08-01T11:41:27;100713.00;;;36.70
51547;BMP180;37542;50.164;9.086;2022-08-01T11:45:08;100687.00;;;36.80
51547;BMP180;37542;50.164;9.086;2022-08-01T11:53:46;100686.00;;;37.10
51547;BMP180;37542;50.164;9.086;2022-08-01T11:57:32;100678.00;;;37.40
51547;BMP180;37542;50.164;9.086;2022-08-01T12:01:18;100681.00;;;37.70
51547;BMP180;37542;50.164;9.086;2022-08-01T12:05:13;100673.00;;;37.80
51547;BMP180;37542;50.164;9.086;2022-08-01T12:09:14;100682.00;;;38.10
51547;BMP180;37542;50.164;9.086;2022-08-01T12:13:17;100675.00;;;38.30
51547;BMP180;37542;50.164;9.086;2022-08-01T12:16:58;100684.00;;;38.10
51547;BMP180;37542;50.164;9.086;2022-08-01T12:21:12;100672.00;;;37.90
51547;BMP180;37542;50.164;9.086;2022-08-01T12:25:14;100668.00;;;38.00
51547;BMP180;37542;50.164;9.086;2022-08-01T12:29:32;100638.00;;;38.20
51547;BMP180;37542;50.164;9.086;2022-08-01T12:37:59;100665.00;;;38.50
51547;BMP180;37542;50.164;9.086;2022-08-01T12:41:43;100651.00;;;38.50
51547;BMP180;37542;50.164;9.086;2022-08-01T12:45:43;100653.00;;;38.60
51547;BMP180;37542;50.164;9.086;2022-08-01T12:49:42;100620.00;;;38.50
51547;BMP180;37542;50.164;9.086;2022-08-01T12:53:24;100660.00;;;38.60
51547;BMP180;37542;50.164;9.086;2022-08-01T12:57:22;100660.00;;;38.70
51547;BMP180;37542;50.164;9.086;2022-08-01T13:01:10;100649.00;;;38.90
51547;BMP180;37542;50.164;9.086;2022-08-01T13:04:51;100655.00;;;39.00
51547;BMP180;37542;50.164;9.086;2022-08-01T13:08:34;100651.00;;;38.90
51547;BMP180;37542;50.164;9.086;2022-08-01T13:12:15;100646.00;;;38.90
51547;BMP180;37542;50.164;9.086;2022-08-01T13:16:07;100642.00;;;38.90
51547;BMP180;37542;50.164;9.086;2022-08-01T13:19:48;100655.00;;;38.80
51547;BMP180;37542;50.164;9.086;2022-08-01T13:23:29;100644.00;;;38.70
51547;BMP180;37542;50.164;9.086;2022-08-01T13:27:20;100644.00;;;38.60
51547;BMP180;37542;50.164;9.086;2022-08-01T13:31:07;100640.00;;;38.70
51547;BMP180;37542;50.164;9.086;2022-08-01T13:34:57;100627.00;;;38.70
51547;BMP180;37542;50.164;9.086;2022-08-01T13:38:48;100634.00;;;38.80
51547;BMP180;37542;50.164;9.086;2022-08-01T13:42:47;100631.00;;;38.80
51547;BMP180;37542;50.164;9.086;2022-08-01T13:46:28;100631.00;;;38.70
51547;BMP180;37542;50.164;9.086;2022-08-01T13:50:09;100643.00;;;38.80
51547;BMP180;37542;50.164;9.086;2022-08-01T13:54:04;100642.00;;;38.70
51547;BMP180;37542;50.164;9.086;2022-08-01T14:02:22;100637.00;;;38.50
51547;BMP180;37542;50.164;9.086;2022-08-01T14:06:38;100611.00;;;38.30
51547;BMP180;37542;50.164;9.086;2022-08-01T14:10:27;100621.00;;;38.10
51547;BMP180;37542;50.164;9.086;2022-08-01T14:14:10;100591.00;;;38.00
51547;BMP180;37542;50.164;9.086;2022-08-01T14:17:51;100626.00;;;37.90
51547;BMP180;37542;50.164;9.086;2022-08-01T14:21:32;100638.00;;;37.70
51547;BMP180;37542;50.164;9.086;2022-08-01T14:25:14;100629.00;;;37.70
51547;BMP180;37542;50.164;9.086;2022-08-01T14:28:55;100637.00;;;37.70
51547;BMP180;37542;50.164;9.086;2022-08-01T14:32:36;100644.00;;;37.60
51547;BMP180;37542;50.164;9.086;2022-08-01T14:36:16;100638.00;;;37.60
51547;BMP180;37542;50.164;9.086;2022-08-01T14:39:59;100643.00;;;37.60
51547;BMP180;37542;50.164;9.086;2022-08-01T14:43:41;100645.00;;;37.70
51547;BMP180;37542;50.164;9.086;2022-08-01T14:47:22;100647.00;;;37.70
51547;BMP180;37542;50.164;9.086;2022-08-01T14:51:03;100667.00;;;37.60
51547;BMP180;37542;50.164;9.086;2022-08-01T14:54:47;100664.00;;;37.10
51547;BMP180;37542;50.164;9.086;2022-08-01T14:58:28;100655.00;;;36.90
51547;BMP180;37542;50.164;9.086;2022-08-01T15:02:09;100659.00;;;36.70
51547;BMP180;37542;50.164;9.086;2022-08-01T15:05:51;100654.00;;;36.60
51547;BMP180;37542;50.164;9.086;2022-08-01T15:09:32;100648.00;;;36.40
51547;BMP180;37542;50.164;9.086;2022-08-01T15:13:13;100639.00;;;36.30
51547;BMP180;37542;50.164;9.086;2022-08-01T15:16:53;100659.00;;;36.30
51547;BMP180;37542;50.164;9.086;2022-08-01T15:20:38;100661.00;;;36.10
51547;BMP180;37542;50.164;9.086;2022-08-01T15:24:46;100654.00;;;36.00
51547;BMP180;37542;50.164;9.086;2022-08-01T15:28:32;100668.00;;;36.00
51547;BMP180;37542;50.164;9.086;2022-08-01T15:32:15;100685.00;;;35.70
51547;BMP180;37542;50.164;9.086;2022-08-01T15:35:56;100666.00;;;35.90
51547;BMP180;37542;50.164;9.086;2022-08-01T15:40:12;100662.00;;;35.70
51547;BMP180;37542;50.164;9.086;2022-08-01T15:43:53;100656.00;;;35.70
51547;BMP180;37542;50.164;9.086;2022-08-01T15:47:34;100647.00;;;35.70
51547;BMP180;37542;50.164;9.086;2022-08-01T15:51:52;100647.00;;;35.70
51547;BMP180;37542;50.164;9.086;2022-08-01T15:55:39;100611.00;;;35.80
51547;BMP180;37542;50.164;9.086;2022-08-01T15:59:20;100601.00;;;35.80
51547;BMP180;37542;50.164;9.086;2022-08-01T16:03:10;100607.00;;;35.80
51547;BMP180;37542;50.164;9.086;2022-08-01T16:06:57;100628.00;;;35.70
51547;BMP180;37542;50.164;9.086;2022-08-01T16:10:38;100661.00;;;35.80
51547;BMP180;37542;50.164;9.086;2022-08-01T16:18:26;100651.00;;;35.80
51547;BMP180;37542;50.164;9.086;2022-08-01T16:22:16;100656.00;;;35.80
51547;BMP180;37542;50.164;9.086;2022-08-01T16:25:57;100655.00;;;35.80
51547;BMP180;37542;50.164;9.086;2022-08-01T16:38:00;100649.00;;;35.80
51547;BMP180;37542;50.164;9.086;2022-08-01T16:41:47;100643.00;;;35.80
51547;BMP180;37542;50.164;9.086;2022-08-01T16:49:27;100652.00;;;35.70
51547;BMP180;37542;50.164;9.086;2022-08-01T16:53:08;100646.00;;;35.60
51547;BMP180;37542;50.164;9.086;2022-08-01T16:56:49;100647.00;;;35.60
51547;BMP180;37542;50.164;9.086;2022-08-01T17:00:30;100630.00;;;35.60
51547;BMP180;37542;50.164;9.086;2022-08-01T17:04:11;100650.00;;;35.50
51547;BMP180;37542;50.164;9.086;2022-08-01T17:08:05;100641.00;;;35.40
51547;BMP180;37542;50.164;9.086;2022-08-01T17:12:04;100632.00;;;35.40
51547;BMP180;37542;50.164;9.086;2022-08-01T17:15:45;100628.00;;;35.30
51547;BMP180;37542;50.164;9.086;2022-08-01T17:19:27;100628.00;;;35.30
51547;BMP180;37542;50.164;9.086;2022-08-01T17:23:08;100637.00;;;35.30
51547;BMP180;37542;50.164;9.086;2022-08-01T17:26:49;100638.00;;;35.30
51547;BMP180;37542;50.164;9.086;2022-08-01T17:34:42;100645.00;;;35.10
51547;BMP180;37542;50.164;9.086;2022-08-01T17:38:22;100650.00;;;35.00
51547;BMP180;37542;50.164;9.086;2022-08-01T17:42:04;100650.00;;;34.80
51547;BMP180;37542;50.164;9.086;2022-08-01T17:45:53;100631.00;;;34.60
51547;BMP180;37542;50.164;9.086;2022-08-01T17:49:41;100619.00;;;34.50
51547;BMP180;37542;50.164;9.086;2022-08-01T17:53:25;100670.00;;;34.60
51547;BMP180;37542;50.164;9.086;2022-08-01T17:57:06;100646.00;;;34.40
51547;BMP180;37542;50.164;9.086;2022-08-01T18:00:46;100665.00;;;34.30
51547;BMP180;37542;50.164;9.086;2022-08-01T18:04:27;100671.00;;;34.20
51547;BMP180;37542;50.164;9.086;2022-08-01T18:08:08;100666.00;;;34.00
51547;BMP180;37542;50.164;9.086;2022-08-01T18:11:49;100671.00;;;34.00
51547;BMP180;37542;50.164;9.086;2022-08-01T18:15:30;100687.00;;;33.90
51547;BMP180;37542;50.164;9.086;2022-08-01T18:19:11;100672.00;;;33.80
51547;BMP180;37542;50.164;9.086;2022-08-01T18:22:52;100675.00;;;33.70
51547;BMP180;37542;50.164;9.086;2022-08-01T18:26:32;100680.00;;;33.60
51547;BMP180;37542;50.164;9.086;2022-08-01T18:30:13;100680.00;;;33.50
51547;BMP180;37542;50.164;9.086;2022-08-01T18:33:54;100684.00;;;33.40
51547;BMP180;37542;50.164;9.086;2022-08-01T18:37:35;100682.00;;;33.30
51547;BMP180;37542;50.164;9.086;2022-08-01T18:41:16;100692.00;;;33.20
51547;BMP180;37542;50.164;9.086;2022-08-01T18:44:57;100693.00;;;33.10
51547;BMP180;37542;50.164;9.086;2022-08-01T18:48:38;100699.00;;;33.00
51547;BMP180;37542;50.164;9.086;2022-08-01T18:52:18;100702.00;;;32.90
51547;BMP180;37542;50.164;9.086;2022-08-01T18:55:59;100712.00;;;32.80
51547;BMP180;37542;50.164;9.086;2022-08-01T18:59:40;100703.00;;;32.70
51547;BMP180;37542;50.164;9.086;2022-08-01T19:03:21;100726.00;;;32.60
51547;BMP180;37542;50.164;9.086;2022-08-01T19:07:02;100714.00;;;32.50
51547;BMP180;37542;50.164;9.086;2022-08-01T19:10:43;100727.00;;;32.40
51547;BMP180;37542;50.164;9.086;2022-08-01T19:14:24;100720.00;;;32.30
51547;BMP180;37542;50.164;9.086;2022-08-01T19:18:08;100733.00;;;32.20
51547;BMP180;37542;50.164;9.086;2022-08-01T19:21:50;100744.00;;;32.00
51547;BMP180;37542;50.164;9.086;2022-08-01T19:25:30;100736.00;;;31.90
51547;BMP180;37542;50.164;9.086;2022-08-01T19:29:29;100745.00;;;31.70
51547;BMP180;37542;50.164;9.086;2022-08-01T19:33:10;100748.00;;;31.60
51547;BMP180;37542;50.164;9.086;2022-08-01T19:36:56;100745.00;;;31.40
51547;BMP180;37542;50.164;9.086;2022-08-01T19:40:40;100756.00;;;31.30
51547;BMP180;37542;50.164;9.086;2022-08-01T19:44:24;100760.00;;;31.30
51547;BMP180;37542;50.164;9.086;2022-08-01T19:48:06;100773.00;;;31.20
51547;BMP180;37542;50.164;9.086;2022-08-01T19:51:56;100778.00;;;31.10
51547;BMP180;37542;50.164;9.086;2022-08-01T19:55:40;100785.00;;;31.10
51547;BMP180;37542;50.164;9.086;2022-08-01T19:59:23;100784.00;;;30.90
51547;BMP180;37542;50.164;9.086;2022-08-01T20:03:06;100795.00;;;30.90
51547;BMP180;37542;50.164;9.086;2022-08-01T20:06:47;100790.00;;;30.90
51547;BMP180;37542;50.164;9.086;2022-08-01T20:10:30;100806.00;;;30.80
51547;BMP180;37542;50.164;9.086;2022-08-01T20:14:16;100800.00;;;30.80
51547;BMP180;37542;50.164;9.086;2022-08-01T20:17:57;100795.00;;;30.70
51547;BMP180;37542;50.164;9.086;2022-08-01T20:21:47;100798.00;;;30.60
51547;BMP180;37542;50.164;9.086;2022-08-01T20:25:29;100809.00;;;30.60
51547;BMP180;37542;50.164;9.086;2022-08-01T20:29:12;100802.00;;;30.60
51547;BMP180;37542;50.164;9.086;2022-08-01T20:32:57;100813.00;;;30.50
51547;BMP180;37542;50.164;9.086;2022-08-01T20:36:38;100808.00;;;30.50
51547;BMP180;37542;50.164;9.086;2022-08-01T20:40:20;100810.00;;;30.40
51547;BMP180;37542;50.164;9.086;2022-08-01T20:44:03;100803.00;;;30.30
51547;BMP180;37542;50.164;9.086;2022-08-01T20:47:46;100814.00;;;30.20
51547;BMP180;37542;50.164;9.086;2022-08-01T20:51:27;100820.00;;;30.10
51547;BMP180;37542;50.164;9.086;2022-08-01T20:55:08;100833.00;;;30.00
51547;BMP180;37542;50.164;9.086;2022-08-01T21:03:17;100826.00;;;29.70
51547;BMP180;37542;50.164;9.086;2022-08-01T21:07:25;100844.00;;;29.60
51547;BMP180;37542;50.164;9.086;2022-08-01T21:11:15;100843.00;;;29.60
51547;BMP180;37542;50.164;9.086;2022-08-01T21:15:00;100858.00;;;29.50
51547;BMP180;37542;50.164;9.086;2022-08-01T21:19:07;100849.00;;;29.30
51547;BMP180;37542;50.164;9.086;2022-08-01T21:23:00;100853.00;;;29.30
51547;BMP180;37542;50.164;9.086;2022-08-01T21:26:45;100845.00;;;29.30
51547;BMP180;37542;50.164;9.086;2022-08-01T21:30:31;100839.00;;;29.20
51547;BMP180;37542;50.164;9.086;2022-08-01T21:34:13;100844.00;;;29.20
51547;BMP180;37542;50.164;9.086;2022-08-01T21:37:57;100838.00;;;29.10
51547;BMP180;37542;50.164;9.086;2022-08-01T21:41:42;100852.00;;;28.90
51547;BMP180;37542;50.164;9.086;2022-08-01T21:45:25;100853.00;;;28.90
51547;BMP180;37542;50.164;9.086;2022-08-01T21:49:07;100868.00;;;28.80
51547;BMP180;37542;50.164;9.086;2022-08-01T21:53:13;100866.00;;;28.70
51547;BMP180;37542;50.164;9.086;2022-08-01T21:57:58;100882.00;;;28.60
51547;BMP180;37542;50.164;9.086;2022-08-01T22:01:37;100879.00;;;28.40
51547;BMP180;37542;50.164;9.086;2022-08-01T22:05:25;100878.00;;;28.40
51547;BMP180;37542;50.164;9.086;2022-08-01T22:09:08;100884.00;;;28.40
51547;BMP180;37542;50.164;9.086;2022-08-01T22:12:50;100873.00;;;28.30
51547;BMP180;37542;50.164;9.086;2022-08-01T22:16:33;100886.00;;;28.30
51547;BMP180;37542;50.164;9.086;2022-08-01T22:20:22;100886.00;;;28.20
51547;BMP180;37542;50.164;9.086;2022-08-01T22:24:04;100886.00;;;28.10
51547;BMP180;37542;50.164;9.086;2022-08-01T22:27:46;100885.00;;;28.10
51547;BMP180;37542;50.164;9.086;2022-08-01T22:31:27;100886.00;;;28.00
51547;BMP180;37542;50.164;9.086;2022-08-01T22:35:14;100892.00;;;27.90
51547;BMP180;37542;50.164;9.086;2022-08-01T22:38:55;100897.00;;;27.90
51547;BMP180;37542;50.164;9.086;2022-08-01T22:42:40;100901.00;;;27.80
51547;BMP180;37542;50.164;9.086;2022-08-01T22:46:51;100898.00;;;27.70
51547;BMP180;37542;50.164;9.086;2022-08-01T22:50:39;100910.00;;;27.70
51547;BMP180;37542;50.164;9.086;2022-08-01T22:54:35;100906.00;;;27.60
51547;BMP180;37542;50.164;9.086;2022-08-01T22:58:17;100904.00;;;27.60
51547;BMP180;37542;50.164;9.086;2022-08-01T23:02:02;100904.00;;;27.50
51547;BMP180;37542;50.164;9.086;2022-08-01T23:09:49;100899.00;;;27.40
51547;BMP180;37542;50.164;9.086;2022-08-01T23:13:33;100906.00;;;27.40